Time;durP1;ratioP1;P1;durP2;ratioP2;P2;SDS_P1;SDS_P2;PMS_P1;PMS_P2;Temp;Humidity;BMP_temperature;BMP_pressure;BME280_temperature;BME280_humidity;BME280_pressure;Samples;Min_cycle;Max_cycle;Signal;HPM_P1;HPM_P2
2022/08/12 00:44:18;;;;;;;;;;;;;;;;;;4913761;28;20270;-57
2022/08/12 00:46:43;;;;;;;;;;;;;;;;;;4912031;28;19948;-57
2022/08/12 00:49:08;;;;;;;;;;;;;;;;;;4913959;28;19927;-57
2022/08/12 00:54:20;;;;;;;;;;;;;;;;;;4917481;28;20670;-58
2022/08/12 00:56:46;;;;;;;;;;;;;;;;;;4912836;28;19918;-57
2022/08/12 00:59:11;;;;;;;;;;;;;;;;;;4922771;28;20464;-57
2022/08/12 01:01:40;;;;;;;;;;;;;;;;;;4930715;28;19927;-56
2022/08/12 01:12:18;;;;;;;;;;;;;;;;;;4919156;28;20700;-58
2022/08/12 01:14:43;;;;;;;;;;;;;;;;;;4915429;28;20029;-59
2022/08/12 01:17:09;;;;;;;;;;;;;;;;;;4918341;28;19926;-58
2022/08/12 01:19:34;;;;;;;;;;;;;;;;;;4917586;28;20822;-58
2022/08/12 01:22:02;;;;;;;;;;;;;;;;;;4917017;28;19985;-58
2022/08/12 01:24:27;;;;;;;;;;;;;;;;;;4914892;28;19930;-58
2022/08/12 01:26:53;;;;;;;;;;;;;;;;;;4917498;28;19918;-58
2022/08/12 01:29:18;;;;;;;;;;;;;;;;;;4916676;28;20431;-58
2022/08/12 01:31:46;;;;;;;;;;;;;;;;;;4912763;28;20406;-58
2022/08/12 01:34:13;;;;;;;;;;;;;;;;;;4916056;28;20604;-58
2022/08/12 01:36:38;;;;;;;;;;;;;;;;;;4913141;28;19991;-58
2022/08/12 01:39:04;;;;;;;;;;;;;;;;;;4912868;28;19930;-57
2022/08/12 01:41:35;;;;;;;;;;;;;;;;;;4919515;28;20459;-58
2022/08/12 01:44:00;;;;;;;;;;;;;;;;;;4931239;28;20118;-58
2022/08/12 01:46:26;;;;;;;;;;;;;;;;;;4916211;28;20404;-58
2022/08/12 01:48:51;;;;;;;;;;;;;;;;;;4915515;28;19922;-57
2022/08/12 01:51:16;;;;;;;;;;;;;;;;;;4914863;28;19941;-58
2022/08/12 01:53:45;;;;;;;;;;;;;;;;;;4916108;28;19933;-57
2022/08/12 01:56:11;;;;;;;;;;;;;;;;;;4915269;28;19965;-57
2022/08/12 02:01:21;;;;;;;;;;;;;;;;;;4914551;28;20021;-59
2022/08/12 02:12:01;;;;;;;;;;;;;;;;;;4913789;28;20048;-58
2022/08/12 02:14:27;;;;;;;;;;;;;;;;;;4913637;28;19931;-59
2022/08/12 02:16:52;;;;;;;;;;;;;;;;;;4918768;28;19922;-59
2022/08/12 02:19:20;;;;;;;;;;;;;;;;;;4913485;28;19922;-58
2022/08/12 02:21:45;;;;;;;;;;;;;;;;;;4915050;28;19956;-58
2022/08/12 02:24:13;;;;;;;;;;;;;;;;;;4913551;28;19918;-58
2022/08/12 02:26:41;;;;;;;;;;;;;;;;;;4911876;28;19923;-58
2022/08/12 02:29:09;;;;;;;;;;;;;;;;;;4895433;28;19949;-58
2022/08/12 02:31:34;;;;;;;;;;;;;;;;;;4910844;28;19934;-58
2022/08/12 02:34:02;;;;;;;;;;;;;;;;;;4914423;28;20445;-58
2022/08/12 02:36:28;;;;;;;;;;;;;;;;;;4913617;28;21012;-59
2022/08/12 02:38:53;;;;;;;;;;;;;;;;;;4913956;28;20451;-58
2022/08/12 02:41:21;;;;;;;;;;;;;;;;;;4914752;28;19933;-58
2022/08/12 02:44:04;;;;;;;;;;;;;;;;;;5033258;28;19920;-58
2022/08/12 02:46:33;;;;;;;;;;;;;;;;;;5017593;28;19920;-58
2022/08/12 02:49:00;;;;;;;;;;;;;;;;;;5034718;28;19982;-58
2022/08/12 02:51:25;;;;;;;;;;;;;;;;;;5019314;28;19924;-58
2022/08/12 02:53:51;;;;;;;;;;;;;;;;;;5035971;28;19994;-59
2022/08/12 02:56:16;;;;;;;;;;;;;;;;;;5019332;28;19966;-58
2022/08/12 02:58:42;;;;;;;;;;;;;;;;;;5038248;28;20016;-58
2022/08/12 03:01:10;;;;;;;;;;;;;;;;;;5032161;28;19925;-58
2022/08/12 03:03:35;;;;;;;;;;;;;;;;;;5035331;28;19920;-59
2022/08/12 03:06:01;;;;;;;;;;;;;;;;;;5036176;28;20532;-58
2022/08/12 03:08:30;;;;;;;;;;;;;;;;;;5022130;28;19963;-58
2022/08/12 03:10:58;;;;;;;;;;;;;;;;;;5019985;28;19990;-58
2022/08/12 03:13:24;;;;;;;;;;;;;;;;;;5039132;28;20417;-58
2022/08/12 03:15:50;;;;;;;;;;;;;;;;;;4936108;28;20309;-58
2022/08/12 03:18:15;;;;;;;;;;;;;;;;;;4918467;28;19922;-58
2022/08/12 03:20:44;;;;;;;;;;;;;;;;;;4911820;28;19930;-58
2022/08/12 03:23:15;;;;;;;;;;;;;;;;;;4913624;28;20503;-59
2022/08/12 03:25:40;;;;;;;;;;;;;;;;;;4910571;28;19980;-58
2022/08/12 03:28:11;;;;;;;;;;;;;;;;;;4915447;28;19923;-58
2022/08/12 03:30:39;;;;;;;;;;;;;;;;;;4913361;28;19980;-59
2022/08/12 03:33:04;;;;;;;;;;;;;;;;;;4903578;28;20605;-58
2022/08/12 03:35:31;;;;;;;;;;;;;;;;;;4895588;28;20004;-58
2022/08/12 03:37:56;;;;;;;;;;;;;;;;;;4905715;28;20915;-58
2022/08/12 04:02:18;;;;;;;;;;;;;;;;;;4910932;28;19933;-59
2022/08/12 04:04:46;;;;;;;;;;;;;;;;;;4894235;28;19930;-58
2022/08/12 04:07:16;;;;;;;;;;;;;;;;;;4913262;28;20061;-58
2022/08/12 04:09:41;;;;;;;;;;;;;;;;;;4910100;28;20023;-59
2022/08/12 04:14:51;;;;;;;;;;;;;;;;;;4916538;28;21876;-58
2022/08/12 04:17:20;;;;;;;;;;;;;;;;;;4913615;28;19922;-59
2022/08/12 04:19:48;;;;;;;;;;;;;;;;;;4909374;28;19923;-60
2022/08/12 04:22:14;;;;;;;;;;;;;;;;;;4910059;28;20480;-59
2022/08/12 04:24:39;;;;;;;;;;;;;;;;;;4896369;28;19968;-59
2022/08/12 04:27:07;;;;;;;;;;;;;;;;;;4914275;28;19955;-59
2022/08/12 04:29:37;;;;;;;;;;;;;;;;;;4913345;28;19969;-58
2022/08/12 04:32:02;;;;;;;;;;;;;;;;;;4916603;28;19929;-60
2022/08/12 04:34:27;;;;;;;;;;;;;;;;;;4914110;28;20739;-59
2022/08/12 04:36:53;;;;;;;;;;;;;;;;;;4915659;28;19969;-59
2022/08/12 04:39:21;;;;;;;;;;;;;;;;;;4913475;28;19950;-59
2022/08/12 04:41:49;;;;;;;;;;;;;;;;;;4925910;28;20488;-58
2022/08/12 04:44:16;;;;;;;;;;;;;;;;;;4899675;28;19922;-59
2022/08/12 04:46:42;;;;;;;;;;;;;;;;;;4913840;28;19950;-59
2022/08/12 04:49:07;;;;;;;;;;;;;;;;;;4916908;28;19922;-58
2022/08/12 04:51:33;;;;;;;;;;;;;;;;;;4912304;28;20446;-59
2022/08/12 04:54:00;;;;;;;;;;;;;;;;;;4917186;28;22115;-59
2022/08/12 04:56:28;;;;;;;;;;;;;;;;;;4918040;28;19919;-60
2022/08/12 04:58:56;;;;;;;;;;;;;;;;;;4905111;28;19922;-59
2022/08/12 05:01:29;;;;;;;;;;;;;;;;;;4924199;28;19926;-59
2022/08/12 05:03:54;;;;;;;;;;;;;;;;;;4931824;28;19918;-58
2022/08/12 05:06:22;;;;;;;;;;;;;;;;;;4914017;28;19923;-59
2022/08/12 05:08:49;;;;;;;;;;;;;;;;;;4918212;28;20920;-59
2022/08/12 05:11:16;;;;;;;;;;;;;;;;;;4918864;28;19972;-59
2022/08/12 05:13:44;;;;;;;;;;;;;;;;;;4916464;28;19931;-59
2022/08/12 05:16:10;;;;;;;;;;;;;;;;;;4914280;28;20574;-59
2022/08/12 05:18:36;;;;;;;;;;;;;;;;;;4917539;28;19930;-59
2022/08/12 05:21:01;;;;;;;;;;;;;;;;;;4915747;28;20060;-58
2022/08/12 05:23:34;;;;;;;;;;;;;;;;;;4916438;28;20464;-59
2022/08/12 05:26:02;;;;;;;;;;;;;;;;;;4915259;28;19923;-59
2022/08/12 05:28:27;;;;;;;;;;;;;;;;;;4916139;28;20599;-60
2022/08/12 05:30:53;;;;;;;;;;;;;;;;;;4916661;28;19923;-59
2022/08/12 05:33:19;;;;;;;;;;;;;;;;;;4919364;28;19930;-59
2022/08/12 05:35:48;;;;;;;;;;;;;;;;;;4913715;28;19926;-59
2022/08/12 05:41:01;;;;;;;;;;;;;;;;;;4912339;28;20281;-59
2022/08/12 05:43:26;;;;;;;;;;;;;;;;;;4914471;28;20116;-59
2022/08/12 05:45:54;;;;;;;;;;;;;;;;;;4913435;28;20506;-59
2022/08/12 05:48:24;;;;;;;;;;;;;;;;;;4913659;28;20094;-59
2022/08/12 05:50:52;;;;;;;;;;;;;;;;;;4913601;28;19926;-59
2022/08/12 05:53:20;;;;;;;;;;;;;;;;;;4912640;28;19927;-59
2022/08/12 05:55:45;;;;;;;;;;;;;;;;;;4914682;28;19974;-59
2022/08/12 05:58:13;;;;;;;;;;;;;;;;;;4896557;28;20071;-59
2022/08/12 06:00:38;;;;;;;;;;;;;;;;;;4913327;28;19928;-59
2022/08/12 06:03:04;;;;;;;;;;;;;;;;;;4915513;28;20470;-60
2022/08/12 06:05:33;;;;;;;;;;;;;;;;;;4919667;28;19965;-60
2022/08/12 06:08:00;;;;;;;;;;;;;;;;;;4917525;28;19922;-59
2022/08/12 06:10:26;;;;;;;;;;;;;;;;;;4910701;28;19965;-60
2022/08/12 06:12:57;;;;;;;;;;;;;;;;;;4912626;28;21603;-59
2022/08/12 06:15:22;;;;;;;;;;;;;;;;;;4912726;28;19934;-59
2022/08/12 06:17:47;;;;;;;;;;;;;;;;;;4914317;28;19919;-60
2022/08/12 06:20:17;;;;;;;;;;;;;;;;;;4913727;28;20036;-59
2022/08/12 06:22:46;;;;;;;;;;;;;;;;;;4916270;28;19930;-59
2022/08/12 06:25:15;;;;;;;;;;;;;;;;;;4911718;28;19922;-59
2022/08/12 06:27:41;;;;;;;;;;;;;;;;;;4923576;28;19995;-59
2022/08/12 06:30:08;;;;;;;;;;;;;;;;;;4917104;28;19923;-59
2022/08/12 06:32:33;;;;;;;;;;;;;;;;;;4922548;28;19933;-59
2022/08/12 06:35:01;;;;;;;;;;;;;;;;;;4915781;28;20358;-60
2022/08/12 06:37:29;;;;;;;;;;;;;;;;;;4914533;28;19923;-60
2022/08/12 06:39:54;;;;;;;;;;;;;;;;;;4911774;28;19926;-60
2022/08/12 06:45:04;;;;;;;;;;;;;;;;;;4915868;28;19918;-60
2022/08/12 06:47:31;;;;;;;;;;;;;;;;;;4917340;28;19929;-60
2022/08/12 06:49:56;;;;;;;;;;;;;;;;;;4916702;28;19923;-60
2022/08/12 06:52:24;;;;;;;;;;;;;;;;;;4916727;28;19926;-60
2022/08/12 06:54:52;;;;;;;;;;;;;;;;;;4930846;28;19933;-60
2022/08/12 06:57:20;;;;;;;;;;;;;;;;;;4910353;28;21950;-60
2022/08/12 06:59:45;;;;;;;;;;;;;;;;;;4910335;28;19923;-60
2022/08/12 07:02:11;;;;;;;;;;;;;;;;;;4920807;28;20416;-60
2022/08/12 07:04:37;;;;;;;;;;;;;;;;;;4916088;28;19923;-60
2022/08/12 07:07:04;;;;;;;;;;;;;;;;;;4921176;28;19930;-60
2022/08/12 07:09:32;;;;;;;;;;;;;;;;;;4915746;28;19926;-60
2022/08/12 07:12:00;;;;;;;;;;;;;;;;;;4914698;28;19949;-60
2022/08/12 07:14:30;;;;;;;;;;;;;;;;;;4913616;28;19923;-60
2022/08/12 07:17:00;;;;;;;;;;;;;;;;;;4921770;28;19919;-59
2022/08/12 07:19:26;;;;;;;;;;;;;;;;;;4914743;28;19919;-59
2022/08/12 07:21:51;;;;;;;;;;;;;;;;;;4914788;28;19930;-60
2022/08/12 07:24:17;;;;;;;;;;;;;;;;;;4898654;28;19929;-60
2022/08/12 07:26:43;;;;;;;;;;;;;;;;;;4914469;28;19923;-62
2022/08/12 07:29:08;;;;;;;;;;;;;;;;;;4913003;28;19918;-59
2022/08/12 07:31:36;;;;;;;;;;;;;;;;;;4912225;28;19962;-60
2022/08/12 07:34:01;;;;;;;;;;;;;;;;;;4912186;28;20581;-60
2022/08/12 07:36:27;;;;;;;;;;;;;;;;;;4910849;28;19968;-59
2022/08/12 07:38:52;;;;;;;;;;;;;;;;;;4912757;28;19930;-58
2022/08/12 07:41:18;;;;;;;;;;;;;;;;;;4911020;28;19922;-59
2022/08/12 07:43:45;;;;;;;;;;;;;;;;;;4914820;28;19922;-60
2022/08/12 07:46:13;;;;;;;;;;;;;;;;;;4912388;28;19929;-60
2022/08/12 07:48:39;;;;;;;;;;;;;;;;;;4917006;28;19919;-60
2022/08/12 07:51:10;;;;;;;;;;;;;;;;;;4911662;28;20386;-60
2022/08/12 07:53:35;;;;;;;;;;;;;;;;;;4918983;28;19925;-60
2022/08/12 07:56:03;;;;;;;;;;;;;;;;;;4910226;28;19921;-60
2022/08/12 07:58:29;;;;;;;;;;;;;;;;;;4914371;28;19975;-60
2022/08/12 08:00:56;;;;;;;;;;;;;;;;;;4924249;28;20332;-60
2022/08/12 08:03:21;;;;;;;;;;;;;;;;;;4919623;28;19962;-60
2022/08/12 08:05:47;;;;;;;;;;;;;;;;;;4918017;28;20033;-60
2022/08/12 08:08:14;;;;;;;;;;;;;;;;;;4918533;28;20429;-60
2022/08/12 08:10:43;;;;;;;;;;;;;;;;;;4919450;28;19926;-60
2022/08/12 08:13:11;;;;;;;;;;;;;;;;;;4918613;28;20357;-60
2022/08/12 08:15:38;;;;;;;;;;;;;;;;;;4918352;28;20480;-60
2022/08/12 08:18:03;;;;;;;;;;;;;;;;;;4919239;28;19919;-61
2022/08/12 08:20:32;;;;;;;;;;;;;;;;;;4927812;28;19937;-60
2022/08/12 08:22:57;;;;;;;;;;;;;;;;;;4921419;28;19939;-61
2022/08/12 08:25:30;;;;;;;;;;;;;;;;;;4921198;28;19923;-61
2022/08/12 08:27:57;;;;;;;;;;;;;;;;;;4920553;28;19923;-60
2022/08/12 08:30:23;;;;;;;;;;;;;;;;;;4908383;28;19957;-60
2022/08/12 08:32:48;;;;;;;;;;;;;;;;;;4902131;28;20371;-60
2022/08/12 08:35:16;;;;;;;;;;;;;;;;;;4918896;28;20056;-60
2022/08/12 08:37:45;;;;;;;;;;;;;;;;;;4918177;28;19927;-60
2022/08/12 08:42:57;;;;;;;;;;;;;;;;;;4919371;28;19949;-60
2022/08/12 08:45:23;;;;;;;;;;;;;;;;;;4917267;28;20005;-60
2022/08/12 08:47:51;;;;;;;;;;;;;;;;;;4919040;28;19965;-60
2022/08/12 08:50:16;;;;;;;;;;;;;;;;;;4920849;28;20476;-61
2022/08/12 08:52:42;;;;;;;;;;;;;;;;;;4920586;28;20011;-61
2022/08/12 08:55:12;;;;;;;;;;;;;;;;;;4917411;28;19975;-61
2022/08/12 08:57:39;;;;;;;;;;;;;;;;;;4927573;28;20401;-60
2022/08/12 09:00:04;;;;;;;;;;;;;;;;;;4918231;28;19949;-61
2022/08/12 09:02:30;;;;;;;;;;;;;;;;;;4926333;28;21838;-61
2022/08/12 09:04:55;;;;;;;;;;;;;;;;;;4919904;28;20473;-61
2022/08/12 09:07:21;;;;;;;;;;;;;;;;;;4920331;28;20357;-61
2022/08/12 09:09:50;;;;;;;;;;;;;;;;;;4918969;28;19923;-61
2022/08/12 09:15:00;;;;;;;;;;;;;;;;;;4918609;28;20075;-61
2022/08/12 09:17:25;;;;;;;;;;;;;;;;;;4921135;28;19929;-60
2022/08/12 09:19:53;;;;;;;;;;;;;;;;;;4919184;28;19919;-62
2022/08/12 09:22:19;;;;;;;;;;;;;;;;;;4922451;28;19976;-60
2022/08/12 09:24:47;;;;;;;;;;;;;;;;;;4918078;28;19922;-61
2022/08/12 09:27:15;;;;;;;;;;;;;;;;;;4917796;28;19952;-61
2022/08/12 09:29:41;;;;;;;;;;;;;;;;;;4923458;28;19922;-61
2022/08/12 09:32:06;;;;;;;;;;;;;;;;;;4920135;28;20415;-61
2022/08/12 09:34:32;;;;;;;;;;;;;;;;;;4915177;28;19934;-61
2022/08/12 09:36:58;;;;;;;;;;;;;;;;;;4900710;28;20426;-61
2022/08/12 09:39:23;;;;;;;;;;;;;;;;;;4917431;28;19923;-61
2022/08/12 09:45:19;;;;;;;;;;;;;;;;;;4919113;28;20013;-62
2022/08/12 09:47:19;;;;;;;;;;;;;;;;;;4921921;28;19919;-61
2022/08/12 09:49:47;;;;;;;;;;;;;;;;;;4918422;28;19919;-62
2022/08/12 09:52:15;;;;;;;;;;;;;;;;;;4919745;28;19934;-61
2022/08/12 09:54:51;;;;;;;;;;;;;;;;;;4923255;28;19926;-61
2022/08/12 09:57:18;;;;;;;;;;;;;;;;;;4917962;28;20377;-61
2022/08/12 09:59:43;;;;;;;;;;;;;;;;;;4919676;28;19922;-61
2022/08/12 10:02:11;;;;;;;;;;;;;;;;;;4918917;28;19934;-62
2022/08/12 10:04:47;;;;;;;;;;;;;;;;;;4919047;28;20362;-61
2022/08/12 10:07:14;;;;;;;;;;;;;;;;;;4918904;28;19922;-60
2022/08/12 10:09:40;;;;;;;;;;;;;;;;;;4915201;28;19928;-61
2022/08/12 10:14:52;;;;;;;;;;;;;;;;;;4918780;28;19930;-61
2022/08/12 10:17:21;;;;;;;;;;;;;;;;;;4919921;28;21903;-61
2022/08/12 10:19:46;;;;;;;;;;;;;;;;;;4919864;28;20371;-60
2022/08/12 10:22:14;;;;;;;;;;;;;;;;;;4918022;28;19927;-60
2022/08/12 10:24:39;;;;;;;;;;;;;;;;;;4918549;28;20025;-61
2022/08/12 10:29:49;;;;;;;;;;;;;;;;;;4919049;28;20317;-61
2022/08/12 10:32:22;;;;;;;;;;;;;;;;;;4918333;28;20338;-60
2022/08/12 10:34:50;;;;;;;;;;;;;;;;;;4899909;28;20088;-61
2022/08/12 10:37:21;;;;;;;;;;;;;;;;;;4918651;28;20003;-61
2022/08/12 10:39:46;;;;;;;;;;;;;;;;;;4915328;28;20005;-60
2022/08/12 10:45:02;;;;;;;;;;;;;;;;;;4915640;28;19918;-61
2022/08/12 10:47:31;;;;;;;;;;;;;;;;;;4917804;28;19968;-60
2022/08/12 10:50:02;;;;;;;;;;;;;;;;;;4917985;28;19926;-59
2022/08/12 10:52:29;;;;;;;;;;;;;;;;;;4919613;28;20329;-60
2022/08/12 10:54:54;;;;;;;;;;;;;;;;;;4918275;28;19926;-60
2022/08/12 10:57:20;;;;;;;;;;;;;;;;;;4920475;28;19966;-62
2022/08/12 10:59:45;;;;;;;;;;;;;;;;;;4917959;28;20565;-59
2022/08/12 11:02:14;;;;;;;;;;;;;;;;;;4917813;28;19933;-59
2022/08/12 11:04:41;;;;;;;;;;;;;;;;;;4919332;28;19946;-60
2022/08/12 11:07:09;;;;;;;;;;;;;;;;;;4932768;28;19929;-60
2022/08/12 11:09:36;;;;;;;;;;;;;;;;;;4916953;28;19923;-60
2022/08/12 11:12:05;;;;;;;;;;;;;;;;;;4918528;28;19969;-60
2022/08/12 11:14:32;;;;;;;;;;;;;;;;;;4898742;28;19930;-60
2022/08/12 11:16:57;;;;;;;;;;;;;;;;;;4918019;28;19922;-60
2022/08/12 11:19:23;;;;;;;;;;;;;;;;;;4918743;28;20009;-60
2022/08/12 11:21:49;;;;;;;;;;;;;;;;;;4908172;28;19988;-60
2022/08/12 11:24:14;;;;;;;;;;;;;;;;;;4901292;28;19952;-60
2022/08/12 11:26:42;;;;;;;;;;;;;;;;;;4917867;28;19923;-60
2022/08/12 11:29:10;;;;;;;;;;;;;;;;;;4918479;28;19957;-60
2022/08/12 11:31:40;;;;;;;;;;;;;;;;;;4918068;28;19922;-61
2022/08/12 11:34:05;;;;;;;;;;;;;;;;;;4900722;28;19997;-61
2022/08/12 11:36:33;;;;;;;;;;;;;;;;;;4916607;28;20045;-61
2022/08/12 11:39:03;;;;;;;;;;;;;;;;;;4917802;28;20199;-62
2022/08/12 11:41:31;;;;;;;;;;;;;;;;;;4923233;28;19923;-61
2022/08/12 11:44:00;;;;;;;;;;;;;;;;;;4916042;28;20000;-60
2022/08/12 11:46:26;;;;;;;;;;;;;;;;;;4915784;28;19929;-60
2022/08/12 11:48:56;;;;;;;;;;;;;;;;;;4919314;28;19954;-61
2022/08/12 11:51:21;;;;;;;;;;;;;;;;;;4916267;28;19927;-61
2022/08/12 11:53:46;;;;;;;;;;;;;;;;;;4920178;28;19925;-61
2022/08/12 11:56:14;;;;;;;;;;;;;;;;;;4919472;28;19933;-60
2022/08/12 11:58:40;;;;;;;;;;;;;;;;;;4918009;28;19918;-61
2022/08/12 12:01:05;;;;;;;;;;;;;;;;;;4915613;28;19958;-61
2022/08/12 12:03:32;;;;;;;;;;;;;;;;;;4918926;28;19954;-61
2022/08/12 12:05:58;;;;;;;;;;;;;;;;;;4916951;28;19927;-61
2022/08/12 12:08:25;;;;;;;;;;;;;;;;;;4917747;28;20298;-61
2022/08/12 12:10:52;;;;;;;;;;;;;;;;;;4915706;28;19933;-60
2022/08/12 12:13:18;;;;;;;;;;;;;;;;;;4918754;28;19927;-60
2022/08/12 12:15:48;;;;;;;;;;;;;;;;;;4914413;28;19961;-61
2022/08/12 12:18:16;;;;;;;;;;;;;;;;;;4918376;28;19923;-60
2022/08/12 12:20:41;;;;;;;;;;;;;;;;;;4914334;28;19972;-61
2022/08/12 12:23:07;;;;;;;;;;;;;;;;;;4932473;28;20912;-60
2022/08/12 12:25:33;;;;;;;;;;;;;;;;;;4907572;28;20608;-61
2022/08/12 12:27:58;;;;;;;;;;;;;;;;;;4916602;28;20879;-61
2022/08/12 12:30:26;;;;;;;;;;;;;;;;;;4915393;28;19923;-61
2022/08/12 12:32:51;;;;;;;;;;;;;;;;;;4916853;28;20743;-60
2022/08/12 12:35:17;;;;;;;;;;;;;;;;;;4915581;28;19923;-61
2022/08/12 12:37:44;;;;;;;;;;;;;;;;;;4898966;28;20159;-61
2022/08/12 12:40:12;;;;;;;;;;;;;;;;;;4914972;28;19923;-61
2022/08/12 12:42:37;;;;;;;;;;;;;;;;;;4917198;28;19939;-60
2022/08/12 12:45:05;;;;;;;;;;;;;;;;;;4915987;28;20061;-60
2022/08/12 12:47:33;;;;;;;;;;;;;;;;;;4919553;28;19919;-61
2022/08/12 12:50:01;;;;;;;;;;;;;;;;;;4918641;28;20468;-61
2022/08/12 12:52:26;;;;;;;;;;;;;;;;;;4901804;28;20000;-60
2022/08/12 12:54:54;;;;;;;;;;;;;;;;;;4918953;28;19926;-62
2022/08/12 12:57:25;;;;;;;;;;;;;;;;;;4920657;28;21056;-60
2022/08/12 13:02:39;;;;;;;;;;;;;;;;;;4919927;28;19923;-61
2022/08/12 13:05:06;;;;;;;;;;;;;;;;;;4919999;28;19933;-61
2022/08/12 13:07:34;;;;;;;;;;;;;;;;;;4921441;28;19926;-61
2022/08/12 13:10:00;;;;;;;;;;;;;;;;;;4918374;28;19949;-61
2022/08/12 13:12:25;;;;;;;;;;;;;;;;;;4919582;28;20472;-61
2022/08/12 13:14:50;;;;;;;;;;;;;;;;;;4914924;28;20076;-61
2022/08/12 13:17:21;;;;;;;;;;;;;;;;;;4920702;28;19923;-60
2022/08/12 13:19:46;;;;;;;;;;;;;;;;;;4902146;28;19944;-60
2022/08/12 13:22:17;;;;;;;;;;;;;;;;;;4921446;28;20670;-61
2022/08/12 13:24:43;;;;;;;;;;;;;;;;;;4918483;28;19918;-60
2022/08/12 13:27:14;;;;;;;;;;;;;;;;;;4918952;28;20409;-60
2022/08/12 13:29:43;;;;;;;;;;;;;;;;;;4917983;28;19925;-60
2022/08/12 13:32:13;;;;;;;;;;;;;;;;;;4914523;28;20412;-60
2022/08/12 13:34:41;;;;;;;;;;;;;;;;;;4913649;28;19923;-60
2022/08/12 13:37:10;;;;;;;;;;;;;;;;;;4915557;28;19922;-60
2022/08/12 13:39:35;;;;;;;;;;;;;;;;;;4920332;28;20176;-61
2022/08/12 13:42:01;;;;;;;;;;;;;;;;;;4910916;28;22680;-60
2022/08/12 13:44:26;;;;;;;;;;;;;;;;;;4913797;28;19919;-60
2022/08/12 13:46:51;;;;;;;;;;;;;;;;;;4915330;28;20012;-60
2022/08/12 13:49:16;;;;;;;;;;;;;;;;;;4913027;28;19922;-64
2022/08/12 13:51:42;;;;;;;;;;;;;;;;;;4920730;28;19950;-62
2022/08/12 13:54:08;;;;;;;;;;;;;;;;;;4913067;28;19987;-60
2022/08/12 13:56:37;;;;;;;;;;;;;;;;;;4910742;28;19927;-60
2022/08/12 13:59:06;;;;;;;;;;;;;;;;;;4914323;28;20845;-60
2022/08/12 14:01:31;;;;;;;;;;;;;;;;;;4911372;28;19969;-60
2022/08/12 14:03:57;;;;;;;;;;;;;;;;;;4914064;28;19929;-60
2022/08/12 14:06:22;;;;;;;;;;;;;;;;;;4916390;28;19966;-61
2022/08/12 14:08:47;;;;;;;;;;;;;;;;;;4912658;28;20539;-60
2022/08/12 14:11:15;;;;;;;;;;;;;;;;;;4912977;28;19931;-60
2022/08/12 14:13:43;;;;;;;;;;;;;;;;;;4912177;28;19980;-60
2022/08/12 14:16:09;;;;;;;;;;;;;;;;;;4895030;28;20055;-61
2022/08/12 14:18:35;;;;;;;;;;;;;;;;;;4916033;28;19922;-61
2022/08/12 14:21:03;;;;;;;;;;;;;;;;;;4914642;28;19954;-61
2022/08/12 14:23:28;;;;;;;;;;;;;;;;;;4918118;28;20116;-60
2022/08/12 14:25:54;;;;;;;;;;;;;;;;;;4915324;28;19919;-60
2022/08/12 14:28:20;;;;;;;;;;;;;;;;;;4913608;28;19922;-62
2022/08/12 14:30:45;;;;;;;;;;;;;;;;;;4909640;28;19926;-61
2022/08/12 14:33:11;;;;;;;;;;;;;;;;;;4912542;28;21227;-60
2022/08/12 14:35:37;;;;;;;;;;;;;;;;;;4915301;28;19923;-60
2022/08/12 14:38:02;;;;;;;;;;;;;;;;;;4916875;28;19922;-63
2022/08/12 14:40:30;;;;;;;;;;;;;;;;;;4914598;28;19923;-60
2022/08/12 14:42:56;;;;;;;;;;;;;;;;;;4913971;28;20565;-59
2022/08/12 14:45:21;;;;;;;;;;;;;;;;;;4912336;28;19925;-60
2022/08/12 14:47:46;;;;;;;;;;;;;;;;;;4912707;28;20019;-60
2022/08/12 14:50:12;;;;;;;;;;;;;;;;;;4914602;28;19922;-61
2022/08/12 14:52:42;;;;;;;;;;;;;;;;;;4916540;28;21686;-62
2022/08/12 14:55:10;;;;;;;;;;;;;;;;;;4915961;28;20040;-60
2022/08/12 14:57:41;;;;;;;;;;;;;;;;;;4916167;28;19925;-59
2022/08/12 15:02:54;;;;;;;;;;;;;;;;;;4915711;28;19926;-59
2022/08/12 15:05:21;;;;;;;;;;;;;;;;;;4916478;28;19927;-59
2022/08/12 15:07:47;;;;;;;;;;;;;;;;;;4915594;28;20065;-60
2022/08/12 15:10:16;;;;;;;;;;;;;;;;;;4909085;28;20492;-59
2022/08/12 15:12:42;;;;;;;;;;;;;;;;;;4912588;28;19922;-59
2022/08/12 15:15:08;;;;;;;;;;;;;;;;;;4911065;28;19931;-59
2022/08/12 15:17:36;;;;;;;;;;;;;;;;;;4914071;28;19929;-59
2022/08/12 15:20:03;;;;;;;;;;;;;;;;;;4909888;28;20115;-62
2022/08/12 15:22:29;;;;;;;;;;;;;;;;;;4915393;28;19919;-59
2022/08/12 15:24:55;;;;;;;;;;;;;;;;;;4919670;28;19949;-59
2022/08/12 15:27:23;;;;;;;;;;;;;;;;;;4916687;28;20394;-59
2022/08/12 15:29:51;;;;;;;;;;;;;;;;;;4895190;28;19968;-59
2022/08/12 15:32:18;;;;;;;;;;;;;;;;;;4915352;28;20919;-59
2022/08/12 15:34:44;;;;;;;;;;;;;;;;;;4913663;28;19930;-59
2022/08/12 15:37:09;;;;;;;;;;;;;;;;;;4912672;28;19953;-59
2022/08/12 15:39:35;;;;;;;;;;;;;;;;;;4911755;28;20298;-59
2022/08/12 15:42:00;;;;;;;;;;;;;;;;;;4915704;28;20248;-60
2022/08/12 15:44:28;;;;;;;;;;;;;;;;;;4910306;28;19922;-59
2022/08/12 15:46:57;;;;;;;;;;;;;;;;;;4910832;28;20456;-59
2022/08/12 15:49:26;;;;;;;;;;;;;;;;;;4912412;28;20021;-58
2022/08/12 15:51:52;;;;;;;;;;;;;;;;;;4917809;28;20780;-58
2022/08/12 15:54:19;;;;;;;;;;;;;;;;;;4915978;28;19943;-58
2022/08/12 15:56:47;;;;;;;;;;;;;;;;;;4916975;28;21167;-59
2022/08/12 15:59:14;;;;;;;;;;;;;;;;;;4896070;28;19930;-58
2022/08/12 16:01:42;;;;;;;;;;;;;;;;;;4920218;28;19930;-58
2022/08/12 16:04:10;;;;;;;;;;;;;;;;;;4919629;28;20675;-58
2022/08/12 16:06:36;;;;;;;;;;;;;;;;;;4914046;28;19977;-58
2022/08/12 16:09:04;;;;;;;;;;;;;;;;;;4913567;28;19969;-58
2022/08/12 16:11:38;;;;;;;;;;;;;;;;;;4918293;28;19926;-58
2022/08/12 16:14:03;;;;;;;;;;;;;;;;;;4914555;28;19923;-59
2022/08/12 16:16:34;;;;;;;;;;;;;;;;;;4910311;28;19953;-58
2022/08/12 16:19:02;;;;;;;;;;;;;;;;;;4913262;28;20105;-58
2022/08/12 16:21:32;;;;;;;;;;;;;;;;;;4910109;28;20219;-58
2022/08/12 16:23:58;;;;;;;;;;;;;;;;;;4898001;28;21930;-58
2022/08/12 16:26:23;;;;;;;;;;;;;;;;;;4917264;28;19919;-58
2022/08/12 16:28:51;;;;;;;;;;;;;;;;;;4898880;28;19930;-59
2022/08/12 16:31:16;;;;;;;;;;;;;;;;;;4911836;28;19931;-57
2022/08/12 16:33:41;;;;;;;;;;;;;;;;;;4915536;28;19923;-58
2022/08/12 16:36:09;;;;;;;;;;;;;;;;;;4894817;28;19918;-57
2022/08/12 16:38:34;;;;;;;;;;;;;;;;;;4915467;28;20151;-59
2022/08/12 16:41:00;;;;;;;;;;;;;;;;;;4916667;28;20063;-61
2022/08/12 16:43:25;;;;;;;;;;;;;;;;;;4920498;28;20009;-59
2022/08/12 16:45:52;;;;;;;;;;;;;;;;;;4918592;28;19953;-59
2022/08/12 16:48:17;;;;;;;;;;;;;;;;;;4912149;28;20727;-59
2022/08/12 16:50:47;;;;;;;;;;;;;;;;;;4914144;28;19930;-59
2022/08/12 16:53:18;;;;;;;;;;;;;;;;;;4918487;28;20916;-60
2022/08/12 16:55:43;;;;;;;;;;;;;;;;;;4916481;28;19923;-59
2022/08/12 16:58:11;;;;;;;;;;;;;;;;;;4925486;28;19930;-59
2022/08/12 17:00:39;;;;;;;;;;;;;;;;;;4916112;28;19918;-59
2022/08/12 17:03:09;;;;;;;;;;;;;;;;;;4913114;28;19960;-59
2022/08/12 17:05:34;;;;;;;;;;;;;;;;;;4926349;28;19923;-58
2022/08/12 17:08:00;;;;;;;;;;;;;;;;;;4915832;28;19973;-58
2022/08/12 17:10:27;;;;;;;;;;;;;;;;;;4916088;28;21040;-58
2022/08/12 17:12:52;;;;;;;;;;;;;;;;;;4910758;28;19931;-59
2022/08/12 17:15:20;;;;;;;;;;;;;;;;;;4911443;28;20026;-59
2022/08/12 17:17:48;;;;;;;;;;;;;;;;;;4914007;28;19919;-59
2022/08/12 17:20:13;;;;;;;;;;;;;;;;;;4912444;28;20572;-59
2022/08/12 17:22:43;;;;;;;;;;;;;;;;;;4914728;28;19923;-60
2022/08/12 17:25:09;;;;;;;;;;;;;;;;;;4915226;28;20854;-59
2022/08/12 17:27:39;;;;;;;;;;;;;;;;;;4920298;28;20292;-59
2022/08/12 17:30:04;;;;;;;;;;;;;;;;;;4910707;28;19918;-59
2022/08/12 17:32:34;;;;;;;;;;;;;;;;;;4915056;28;19934;-58
2022/08/12 17:37:47;;;;;;;;;;;;;;;;;;4914683;28;19944;-58
2022/08/12 17:40:15;;;;;;;;;;;;;;;;;;4919435;28;19929;-59
2022/08/12 17:42:42;;;;;;;;;;;;;;;;;;4917196;28;19925;-59
2022/08/12 17:45:09;;;;;;;;;;;;;;;;;;4917476;28;21789;-58
2022/08/12 17:47:35;;;;;;;;;;;;;;;;;;4919052;28;20571;-58
2022/08/12 17:50:04;;;;;;;;;;;;;;;;;;4919673;28;19923;-58
2022/08/12 17:52:29;;;;;;;;;;;;;;;;;;4918749;28;20041;-59
2022/08/12 17:55:00;;;;;;;;;;;;;;;;;;4917923;28;19922;-59
2022/08/12 17:57:28;;;;;;;;;;;;;;;;;;4921036;28;19922;-59
2022/08/12 17:59:53;;;;;;;;;;;;;;;;;;4900244;28;20429;-59
2022/08/12 18:02:24;;;;;;;;;;;;;;;;;;4918532;28;19954;-59
2022/08/12 18:04:53;;;;;;;;;;;;;;;;;;4924676;28;19923;-59
2022/08/12 18:07:22;;;;;;;;;;;;;;;;;;4915171;28;20012;-59
2022/08/12 18:09:51;;;;;;;;;;;;;;;;;;4917480;28;19919;-58
2022/08/12 18:15:00;;;;;;;;;;;;;;;;;;4919251;28;19930;-59
2022/08/12 18:17:26;;;;;;;;;;;;;;;;;;4917050;28;20412;-58
2022/08/12 18:19:52;;;;;;;;;;;;;;;;;;4917563;28;19922;-59
2022/08/12 18:22:17;;;;;;;;;;;;;;;;;;4917620;28;19919;-59
2022/08/12 18:24:46;;;;;;;;;;;;;;;;;;4918107;28;19938;-58
2022/08/12 18:27:12;;;;;;;;;;;;;;;;;;4919011;28;19922;-59
2022/08/12 18:29:39;;;;;;;;;;;;;;;;;;4918762;28;20449;-58
2022/08/12 18:32:07;;;;;;;;;;;;;;;;;;4919111;28;20029;-58
2022/08/12 18:34:32;;;;;;;;;;;;;;;;;;4917592;28;19929;-59
2022/08/12 18:37:02;;;;;;;;;;;;;;;;;;4918406;28;20337;-59
2022/08/12 18:41:27;;;;;;;;;;;;;;;;;;4921798;28;19927;-59
2022/08/12 18:42:15;;;;;;;;;;;;;;;;;;4917513;28;20006;-59
2022/08/12 18:44:40;;;;;;;;;;;;;;;;;;4923459;28;19980;-59
2022/08/12 18:47:08;;;;;;;;;;;;;;;;;;4918450;28;19934;-59